Time;durP1;ratioP1;P1;durP2;ratioP2;P2;SDS_P1;SDS_P2;PMS_P1;PMS_P2;Temp;Humidity;BMP_temperature;BMP_pressure;BME280_temperature;BME280_humidity;BME280_pressure;Samples;Min_cycle;Max_cycle;Signal;HPM_P1;HPM_P2
2022/02/27 00:01:24;;;;;;;0.50;0.50;;;2.60;99.90;;;;;;4444324;32;20064;-64
2022/02/27 00:03:49;;;;;;;0.40;0.40;;;2.60;99.90;;;;;;4440415;32;20132;-65
2022/02/27 00:06:15;;;;;;;0.40;0.40;;;2.60;99.90;;;;;;4439401;32;20525;-64
2022/02/27 00:08:41;;;;;;;0.60;0.60;;;2.60;99.90;;;;;;4439349;32;20061;-64
2022/02/27 00:11:06;;;;;;;1.08;0.98;;;2.60;99.90;;;;;;4440326;32;20069;-64
2022/02/27 00:13:32;;;;;;;0.60;0.60;;;2.50;99.90;;;;;;4430904;32;20069;-64
2022/02/27 00:15:57;;;;;;;0.65;0.65;;;2.50;99.90;;;;;;4451080;32;20081;-64
2022/02/27 00:18:22;;;;;;;0.73;0.65;;;2.50;99.90;;;;;;4438416;32;20128;-66
2022/02/27 00:20:48;;;;;;;0.70;0.70;;;2.60;99.90;;;;;;4429602;32;20088;-66
2022/02/27 00:23:14;;;;;;;0.43;0.43;;;2.50;99.90;;;;;;4438820;32;20073;-66
2022/02/27 00:25:40;;;;;;;2.62;1.62;;;2.50;99.90;;;;;;4440447;32;20434;-66
2022/02/27 00:28:07;;;;;;;0.60;0.60;;;2.60;99.90;;;;;;4443789;32;20116;-66
2022/02/27 00:30:34;;;;;;;0.75;0.75;;;2.50;99.90;;;;;;4436621;32;20088;-66
2022/02/27 00:32:59;;;;;;;0.70;0.70;;;2.40;99.90;;;;;;4443073;32;20096;-66
2022/02/27 00:35:25;;;;;;;1.48;0.82;;;2.30;99.90;;;;;;4454502;32;20072;-66
2022/02/27 00:37:50;;;;;;;0.80;0.80;;;2.30;99.90;;;;;;4443217;32;20070;-66
2022/02/27 00:40:16;;;;;;;0.40;0.40;;;2.20;99.90;;;;;;4440601;32;20532;-66
2022/02/27 00:42:41;;;;;;;0.50;0.50;;;2.20;99.90;;;;;;4443403;32;20083;-66
2022/02/27 00:45:08;;;;;;;4.65;1.83;;;2.20;99.90;;;;;;4444038;32;20144;-66
2022/02/27 00:47:33;;;;;;;2.30;0.73;;;2.10;99.90;;;;;;4438143;32;20066;-66
2022/02/27 00:49:59;;;;;;;0.45;0.45;;;2.10;99.90;;;;;;4440422;32;20404;-66
2022/02/27 00:52:24;;;;;;;8.82;1.65;;;2.00;99.90;;;;;;4442073;32;20097;-66
2022/02/27 00:54:51;;;;;;;1.77;1.52;;;2.00;99.90;;;;;;4451482;32;20068;-66
2022/02/27 00:57:16;;;;;;;0.88;0.88;;;2.10;99.90;;;;;;4442354;32;20081;-66
2022/02/27 00:59:44;;;;;;;0.98;0.75;;;2.00;99.90;;;;;;4433547;32;20255;-66
2022/02/27 01:02:10;;;;;;;1.35;1.25;;;1.90;99.90;;;;;;4442382;32;20131;-66
2022/02/27 01:04:36;;;;;;;0.40;0.40;;;2.00;99.90;;;;;;4442886;32;20430;-66
2022/02/27 01:07:02;;;;;;;0.98;0.98;;;2.00;99.90;;;;;;4442658;32;20065;-66
2022/02/27 01:09:27;;;;;;;0.77;0.77;;;2.00;99.90;;;;;;4435882;32;20099;-66
2022/02/27 01:11:53;;;;;;;0.80;0.80;;;2.00;99.90;;;;;;4452065;32;20079;-66
2022/02/27 01:14:18;;;;;;;0.40;0.40;;;2.00;99.90;;;;;;4437543;32;20085;-66
2022/02/27 01:16:44;;;;;;;0.50;0.50;;;2.00;99.90;;;;;;4443116;32;20403;-66
2022/02/27 01:19:09;;;;;;;1.48;1.05;;;1.90;99.90;;;;;;4442660;32;20077;-66
2022/02/27 01:21:35;;;;;;;0.60;0.60;;;2.00;99.90;;;;;;4436390;32;20065;-66
2022/02/27 01:24:00;;;;;;;0.70;0.70;;;2.00;99.90;;;;;;4439479;32;20096;-66
2022/02/27 01:26:26;;;;;;;0.73;0.73;;;1.90;99.90;;;;;;4443158;32;20076;-66
2022/02/27 01:28:51;;;;;;;1.40;1.10;;;1.90;99.90;;;;;;4445008;32;20080;-66
2022/02/27 01:31:17;;;;;;;0.57;0.55;;;1.90;99.90;;;;;;4445125;32;20064;-66
2022/02/27 01:33:42;;;;;;;11.10;1.70;;;1.80;99.90;;;;;;4455812;32;20069;-66
2022/02/27 01:36:08;;;;;;;0.50;0.50;;;1.80;99.90;;;;;;4444684;32;20128;-66
2022/02/27 01:38:33;;;;;;;0.80;0.80;;;1.80;99.90;;;;;;4445956;32;20064;-66
2022/02/27 01:41:00;;;;;;;0.40;0.40;;;1.80;99.90;;;;;;4444939;32;20119;-66
2022/02/27 01:43:25;;;;;;;5.37;1.50;;;1.80;99.90;;;;;;4448862;32;20076;-66
2022/02/27 01:45:51;;;;;;;3.08;1.77;;;1.80;99.90;;;;;;4460241;32;20061;-66
2022/02/27 01:48:16;;;;;;;1.45;1.35;;;1.90;99.90;;;;;;4448083;32;20421;-66
2022/02/27 01:50:42;;;;;;;0.95;0.55;;;1.90;99.90;;;;;;4457633;32;20533;-66
2022/02/27 01:53:08;;;;;;;2.30;1.12;;;1.90;99.90;;;;;;4457911;32;20069;-66
2022/02/27 01:55:33;;;;;;;1.40;0.70;;;1.80;99.90;;;;;;4451505;32;20395;-66
2022/02/27 01:58:00;;;;;;;0.52;0.52;;;1.80;99.90;;;;;;4443960;32;20097;-66
2022/02/27 02:00:26;;;;;;;1.20;0.80;;;1.70;99.90;;;;;;4438242;32;20525;-66
2022/02/27 02:02:51;;;;;;;0.52;0.52;;;1.70;99.90;;;;;;4430124;32;20127;-66
2022/02/27 02:05:17;;;;;;;1.60;1.50;;;1.60;99.90;;;;;;4442775;32;20080;-66
2022/02/27 02:07:42;;;;;;;0.68;0.68;;;1.60;99.90;;;;;;4436077;32;20060;-66
2022/02/27 02:10:09;;;;;;;0.40;0.40;;;1.70;99.90;;;;;;4448213;32;20119;-66
2022/02/27 02:12:34;;;;;;;0.93;0.93;;;1.70;99.90;;;;;;4445560;32;20057;-66
2022/02/27 02:15:00;;;;;;;6.47;1.27;;;1.70;99.90;;;;;;4448467;32;20077;-66
2022/02/27 02:17:28;;;;;;;0.50;0.50;;;1.60;99.90;;;;;;4448580;32;20136;-66
2022/02/27 02:19:55;;;;;;;2.70;1.00;;;1.60;99.90;;;;;;4443676;32;20081;-66
2022/02/27 02:22:20;;;;;;;0.73;0.73;;;1.60;99.90;;;;;;4442409;32;20439;-66
2022/02/27 02:24:46;;;;;;;0.60;0.60;;;1.50;99.90;;;;;;4444438;32;20452;-66
2022/02/27 02:27:12;;;;;;;1.15;1.08;;;1.50;99.90;;;;;;4432238;32;20081;-66
2022/02/27 02:29:37;;;;;;;1.92;1.65;;;1.60;99.90;;;;;;4443974;32;20072;-66
2022/02/27 02:32:03;;;;;;;4.03;1.67;;;1.60;99.90;;;;;;4443786;32;20072;-66
2022/02/27 02:34:29;;;;;;;0.90;0.90;;;1.50;99.90;;;;;;4441596;32;20552;-66
2022/02/27 02:36:55;;;;;;;1.73;1.00;;;1.50;99.90;;;;;;4440560;32;20068;-66
2022/02/27 02:39:22;;;;;;;0.60;0.60;;;1.50;99.90;;;;;;4437201;32;20508;-66
2022/02/27 02:41:49;;;;;;;0.65;0.65;;;1.60;99.90;;;;;;4439501;32;20565;-66
2022/02/27 02:44:15;;;;;;;1.65;1.37;;;1.50;99.90;;;;;;4446048;32;20077;-66
2022/02/27 02:46:41;;;;;;;0.60;0.60;;;1.50;99.90;;;;;;4443125;32;20069;-66
2022/02/27 02:49:08;;;;;;;0.62;0.62;;;1.50;99.90;;;;;;4435877;32;20116;-66
2022/02/27 02:51:34;;;;;;;0.80;0.80;;;1.60;99.90;;;;;;4443593;32;20508;-66
2022/02/27 02:53:59;;;;;;;0.98;0.98;;;1.50;99.90;;;;;;4430882;32;20073;-65
2022/02/27 02:56:25;;;;;;;0.73;0.73;;;1.40;99.90;;;;;;4446527;32;20072;-65
2022/02/27 02:58:51;;;;;;;0.62;0.62;;;1.40;99.90;;;;;;4442422;32;20414;-65
2022/02/27 03:01:18;;;;;;;0.40;0.40;;;1.50;99.90;;;;;;4438106;32;20077;-65
2022/02/27 03:03:46;;;;;;;2.35;1.00;;;1.50;99.90;;;;;;4436827;32;20074;-65
2022/02/27 03:06:12;;;;;;;1.87;1.35;;;1.40;99.90;;;;;;4427698;32;20061;-65
2022/02/27 03:08:39;;;;;;;0.70;0.70;;;1.30;99.90;;;;;;4428786;32;20423;-65
2022/02/27 03:11:05;;;;;;;0.77;0.77;;;1.30;99.90;;;;;;4443679;32;20065;-65
2022/02/27 03:13:30;;;;;;;1.02;1.00;;;1.30;99.90;;;;;;4438055;32;20077;-65
2022/02/27 03:15:56;;;;;;;0.57;0.57;;;1.20;99.90;;;;;;4444659;32;20402;-65
2022/02/27 03:18:22;;;;;;;0.73;0.73;;;1.20;99.90;;;;;;4442869;32;20398;-65
2022/02/27 03:20:47;;;;;;;0.62;0.62;;;1.20;99.90;;;;;;4442456;32;20104;-65
2022/02/27 03:23:13;;;;;;;0.50;0.50;;;1.10;99.90;;;;;;4441389;32;20516;-65
2022/02/27 03:25:38;;;;;;;0.60;0.60;;;1.20;99.90;;;;;;4437651;32;20068;-65
2022/02/27 03:28:04;;;;;;;0.65;0.65;;;1.20;99.90;;;;;;4431327;32;20130;-65
2022/02/27 03:30:30;;;;;;;0.80;0.80;;;1.20;99.90;;;;;;4442448;32;20525;-65
2022/02/27 03:32:56;;;;;;;0.88;0.88;;;1.10;99.90;;;;;;4428544;32;20436;-65
2022/02/27 03:35:22;;;;;;;0.40;0.40;;;1.10;99.90;;;;;;4444564;32;20069;-65
2022/02/27 03:37:50;;;;;;;0.80;0.80;;;1.10;99.90;;;;;;4444099;32;20124;-65
2022/02/27 03:40:17;;;;;;;1.23;1.12;;;1.10;99.90;;;;;;4443933;32;20061;-65
2022/02/27 03:42:43;;;;;;;0.70;0.70;;;1.20;99.90;;;;;;4436639;32;20073;-65
2022/02/27 03:45:09;;;;;;;0.90;0.90;;;1.20;99.90;;;;;;4443906;32;20529;-65
2022/02/27 03:47:35;;;;;;;0.50;0.50;;;1.20;99.90;;;;;;4453737;32;20061;-65
2022/02/27 03:50:00;;;;;;;0.45;0.45;;;1.20;99.90;;;;;;4448804;32;20077;-65
2022/02/27 03:52:26;;;;;;;3.03;1.15;;;1.20;99.90;;;;;;4443458;32;20065;-65
2022/02/27 03:54:51;;;;;;;0.60;0.60;;;1.10;99.90;;;;;;4447388;32;20097;-65
2022/02/27 03:57:17;;;;;;;0.70;0.70;;;0.90;99.90;;;;;;4447517;32;20085;-65
2022/02/27 03:59:42;;;;;;;0.57;0.57;;;1.00;99.90;;;;;;4443249;32;20120;-65
2022/02/27 04:02:08;;;;;;;0.82;0.80;;;1.00;99.90;;;;;;4448225;32;20065;-65
2022/02/27 04:04:33;;;;;;;0.50;0.50;;;1.00;99.90;;;;;;4449018;32;20512;-65
2022/02/27 04:06:59;;;;;;;0.70;0.70;;;0.90;99.90;;;;;;4440916;32;20143;-65
2022/02/27 04:09:24;;;;;;;0.88;0.88;;;0.80;99.90;;;;;;4435877;32;20085;-65
2022/02/27 04:11:50;;;;;;;1.48;1.27;;;0.90;99.90;;;;;;4436680;32;20061;-65
2022/02/27 04:14:15;;;;;;;1.10;1.10;;;0.90;99.90;;;;;;4446304;32;20446;-65
2022/02/27 04:16:41;;;;;;;0.50;0.50;;;0.80;99.90;;;;;;4443860;32;20129;-65
2022/02/27 04:19:07;;;;;;;1.27;1.17;;;0.70;99.90;;;;;;4441753;32;20092;-65
2022/02/27 04:21:34;;;;;;;0.50;0.50;;;0.70;99.90;;;;;;4439350;32;20078;-65
2022/02/27 04:24:00;;;;;;;0.90;0.90;;;0.70;99.90;;;;;;4443466;32;20101;-65
2022/02/27 04:26:25;;;;;;;0.60;0.60;;;0.70;99.90;;;;;;4440670;32;20065;-65
2022/02/27 04:28:51;;;;;;;0.50;0.50;;;0.80;99.90;;;;;;4443533;32;20105;-65
2022/02/27 04:31:16;;;;;;;0.80;0.80;;;0.90;99.90;;;;;;4439535;32;20116;-65
2022/02/27 04:33:42;;;;;;;0.90;0.85;;;0.90;99.90;;;;;;4439615;32;20069;-65
2022/02/27 04:36:07;;;;;;;1.05;1.00;;;1.00;99.90;;;;;;4440317;32;20060;-65
2022/02/27 04:38:33;;;;;;;0.70;0.70;;;1.00;99.90;;;;;;4434216;32;20065;-65
2022/02/27 04:40:58;;;;;;;0.50;0.50;;;1.00;99.90;;;;;;4433443;32;20120;-65
2022/02/27 04:43:24;;;;;;;0.88;0.88;;;1.00;99.90;;;;;;4443209;32;20073;-65
2022/02/27 04:45:50;;;;;;;0.62;0.62;;;1.00;99.90;;;;;;4440716;32;20076;-65
2022/02/27 04:48:15;;;;;;;0.70;0.70;;;0.90;99.90;;;;;;4429331;32;20463;-65
2022/02/27 04:50:41;;;;;;;1.55;1.45;;;0.90;99.90;;;;;;4435664;32;20594;-65
2022/02/27 04:53:06;;;;;;;0.60;0.60;;;1.00;99.90;;;;;;4443326;32;20085;-65
2022/02/27 04:55:32;;;;;;;0.50;0.50;;;1.00;99.90;;;;;;4430428;32;20060;-65
2022/02/27 04:57:57;;;;;;;0.60;0.60;;;0.90;99.90;;;;;;4427902;32;20327;-65
2022/02/27 05:00:23;;;;;;;0.80;0.80;;;0.80;99.90;;;;;;4440070;32;20060;-65
2022/02/27 05:02:48;;;;;;;0.90;0.80;;;0.80;99.90;;;;;;4443350;32;20139;-65
2022/02/27 05:05:14;;;;;;;0.70;0.70;;;0.80;99.90;;;;;;4442032;32;20069;-65
2022/02/27 05:07:40;;;;;;;1.30;1.20;;;0.80;99.90;;;;;;4439942;32;20073;-65
2022/02/27 05:10:08;;;;;;;0.60;0.60;;;0.90;99.90;;;;;;4432183;32;20111;-65
2022/02/27 05:12:35;;;;;;;0.60;0.60;;;1.10;99.90;;;;;;4434205;32;20060;-65
2022/02/27 05:15:01;;;;;;;0.68;0.68;;;1.10;99.90;;;;;;4443549;32;20072;-65
2022/02/27 05:17:26;;;;;;;0.75;0.75;;;1.00;99.90;;;;;;4441875;32;20085;-65
2022/02/27 05:19:52;;;;;;;0.60;0.60;;;1.00;99.90;;;;;;4437732;32;20075;-65
2022/02/27 05:22:17;;;;;;;0.50;0.50;;;1.10;99.90;;;;;;4431393;32;20072;-65
2022/02/27 05:24:43;;;;;;;0.95;0.95;;;1.00;99.90;;;;;;4441096;32;20156;-65
2022/02/27 05:27:08;;;;;;;0.90;0.90;;;1.00;99.90;;;;;;4429560;32;20065;-65
2022/02/27 05:29:34;;;;;;;1.77;1.67;;;1.00;99.90;;;;;;4443588;32;20065;-65
2022/02/27 05:31:59;;;;;;;1.25;1.15;;;1.00;99.90;;;;;;4443747;32;20072;-65
2022/02/27 05:34:25;;;;;;;0.55;0.55;;;1.00;99.90;;;;;;4448597;32;20488;-65
2022/02/27 05:36:51;;;;;;;0.82;0.73;;;1.00;99.90;;;;;;4445047;32;20061;-65
2022/02/27 05:39:16;;;;;;;4.32;1.65;;;1.00;99.90;;;;;;4442058;32;20081;-65
2022/02/27 05:41:42;;;;;;;0.65;0.65;;;0.90;99.90;;;;;;4442888;32;20073;-65
2022/02/27 05:44:08;;;;;;;0.50;0.50;;;1.00;99.90;;;;;;4442950;32;20388;-65
2022/02/27 05:46:33;;;;;;;0.52;0.52;;;0.90;99.90;;;;;;4443192;32;20560;-65
2022/02/27 05:48:59;;;;;;;2.15;1.58;;;0.80;99.90;;;;;;4440923;32;20072;-65
2022/02/27 05:51:25;;;;;;;2.60;2.10;;;0.80;99.90;;;;;;4441066;32;20120;-65
2022/02/27 05:53:50;;;;;;;1.45;1.08;;;0.80;99.90;;;;;;4435442;32;20564;-65
2022/02/27 05:56:16;;;;;;;0.40;0.40;;;0.80;99.90;;;;;;4440351;32;20533;-65
2022/02/27 05:58:41;;;;;;;1.15;1.05;;;0.90;99.90;;;;;;4440954;32;20096;-65
2022/02/27 06:01:07;;;;;;;4.00;1.48;;;0.90;99.90;;;;;;4443079;32;20543;-65
2022/02/27 06:03:32;;;;;;;1.30;1.17;;;0.80;99.90;;;;;;4442462;32;20072;-65
2022/02/27 06:05:58;;;;;;;0.65;0.65;;;0.70;99.90;;;;;;4435213;32;20675;-65
2022/02/27 06:08:23;;;;;;;5.40;1.58;;;0.70;99.90;;;;;;4436841;32;20232;-65
2022/02/27 06:10:49;;;;;;;0.75;0.75;;;0.70;99.90;;;;;;4435641;32;20070;-65
2022/02/27 06:13:14;;;;;;;0.98;0.88;;;0.80;99.90;;;;;;4441436;32;20065;-65
2022/02/27 06:15:41;;;;;;;0.80;0.80;;;0.80;99.90;;;;;;4431624;32;20495;-65
2022/02/27 06:18:06;;;;;;;4.75;1.27;;;0.90;99.90;;;;;;4442880;32;20136;-65
2022/02/27 06:20:32;;;;;;;1.98;1.77;;;0.90;99.90;;;;;;4442440;32;20596;-65
2022/02/27 06:22:57;;;;;;;0.43;0.43;;;0.90;99.90;;;;;;4455776;32;20499;-65
2022/02/27 06:25:23;;;;;;;2.08;1.70;;;1.00;99.90;;;;;;4440318;32;20073;-65
2022/02/27 06:27:48;;;;;;;1.10;1.08;;;0.90;99.90;;;;;;4445026;32;20073;-65
2022/02/27 06:30:17;;;;;;;0.85;0.82;;;1.00;99.90;;;;;;4445416;32;20073;-65
2022/02/27 06:32:44;;;;;;;0.50;0.50;;;1.00;99.90;;;;;;4444701;32;20567;-65
2022/02/27 06:35:11;;;;;;;1.33;1.20;;;1.00;99.90;;;;;;4445231;32;20069;-65
2022/02/27 06:37:36;;;;;;;1.00;0.95;;;1.10;99.90;;;;;;4442696;32;20088;-65
2022/02/27 06:40:03;;;;;;;0.50;0.50;;;1.20;99.90;;;;;;4442249;32;20536;-65
2022/02/27 06:42:28;;;;;;;1.40;1.30;;;1.20;99.90;;;;;;4445775;32;20579;-65
2022/02/27 06:44:54;;;;;;;0.75;0.75;;;1.20;99.90;;;;;;4450238;32;20193;-65
2022/02/27 06:47:19;;;;;;;0.85;0.85;;;1.30;99.90;;;;;;4444113;32;20121;-65
2022/02/27 06:49:45;;;;;;;0.50;0.50;;;1.30;99.90;;;;;;4444387;32;20500;-65
2022/02/27 06:52:10;;;;;;;22.00;1.52;;;1.40;99.90;;;;;;4444309;32;20081;-65
2022/02/27 06:54:36;;;;;;;1.30;1.20;;;1.40;99.90;;;;;;4454137;32;20085;-65
2022/02/27 06:57:02;;;;;;;2.10;1.55;;;1.50;99.90;;;;;;4446398;32;20161;-65
2022/02/27 06:59:27;;;;;;;1.35;1.23;;;1.50;99.90;;;;;;4443482;32;20089;-65
2022/02/27 07:01:53;;;;;;;0.80;0.80;;;1.50;99.90;;;;;;4449654;32;20072;-67
2022/02/27 07:04:19;;;;;;;0.95;0.95;;;1.60;99.90;;;;;;4446051;32;20516;-65
2022/02/27 07:06:44;;;;;;;2.90;2.33;;;1.60;99.90;;;;;;4443716;32;20069;-67
2022/02/27 07:09:10;;;;;;;1.17;1.12;;;1.70;99.90;;;;;;4443921;32;20139;-66
2022/02/27 07:11:35;;;;;;;9.48;1.65;;;1.80;99.90;;;;;;4454787;32;20068;-65
2022/02/27 07:14:01;;;;;;;3.22;1.87;;;1.80;99.90;;;;;;4449573;32;20085;-65
2022/02/27 07:16:26;;;;;;;0.55;0.55;;;1.80;99.90;;;;;;4445053;32;20149;-65
2022/02/27 07:18:55;;;;;;;0.82;0.82;;;1.90;99.90;;;;;;4443332;32;20072;-65
2022/02/27 07:21:21;;;;;;;1.52;1.40;;;1.90;99.90;;;;;;4444177;32;20426;-65
2022/02/27 07:23:46;;;;;;;1.00;0.77;;;2.00;99.90;;;;;;4445515;32;20080;-65
2022/02/27 07:26:12;;;;;;;2.42;1.73;;;2.00;99.90;;;;;;4443737;32;20072;-65
2022/02/27 07:28:37;;;;;;;2.03;1.33;;;2.00;99.90;;;;;;4447543;32;20085;-65
2022/02/27 07:31:03;;;;;;;1.12;1.02;;;2.00;99.90;;;;;;4455532;32;20115;-65
2022/02/27 07:33:28;;;;;;;1.98;1.08;;;2.10;99.90;;;;;;4449930;32;20068;-65
2022/02/27 07:35:54;;;;;;;0.50;0.50;;;2.20;99.90;;;;;;4440071;32;110990;-65
2022/02/27 07:38:19;;;;;;;0.73;0.73;;;2.20;99.90;;;;;;4440334;32;20107;-65
2022/02/27 07:40:48;;;;;;;2.15;1.95;;;2.20;99.90;;;;;;4435387;32;20081;-65
2022/02/27 07:43:13;;;;;;;0.40;0.40;;;2.30;99.90;;;;;;4443816;32;20081;-65
2022/02/27 07:45:39;;;;;;;1.48;1.37;;;2.40;99.90;;;;;;4443358;32;20158;-65
2022/02/27 07:48:04;;;;;;;0.50;0.50;;;2.50;99.90;;;;;;4442139;32;20092;-65
2022/02/27 07:50:30;;;;;;;0.50;0.50;;;2.50;99.90;;;;;;4447978;32;20056;-65
2022/02/27 07:52:55;;;;;;;0.65;0.65;;;2.60;99.90;;;;;;4440175;32;20077;-65
2022/02/27 07:55:21;;;;;;;2.05;1.50;;;2.80;99.90;;;;;;4442547;32;20061;-65
2022/02/27 07:57:47;;;;;;;0.80;0.80;;;2.90;99.90;;;;;;4439199;32;20398;-65
2022/02/27 08:00:12;;;;;;;0.95;0.95;;;2.90;99.90;;;;;;4441586;32;20053;-65
2022/02/27 08:02:38;;;;;;;1.02;0.82;;;3.00;99.90;;;;;;4444016;32;20081;-65
2022/02/27 08:05:04;;;;;;;1.62;1.30;;;3.20;99.90;;;;;;4436550;32;20078;-65
2022/02/27 08:07:30;;;;;;;6.22;1.10;;;3.40;99.90;;;;;;4437319;32;20056;-65
2022/02/27 08:09:55;;;;;;;1.42;1.33;;;3.40;99.90;;;;;;4432741;32;20085;-65
2022/02/27 08:12:21;;;;;;;0.75;0.75;;;3.40;99.90;;;;;;4453922;32;20065;-65
2022/02/27 08:14:47;;;;;;;0.80;0.80;;;3.40;99.90;;;;;;4428288;32;20062;-65
2022/02/27 08:17:13;;;;;;;3.95;1.50;;;3.50;99.90;;;;;;4439950;32;20060;-65
2022/02/27 08:19:39;;;;;;;1.02;0.93;;;3.60;99.90;;;;;;4441042;32;20120;-65
2022/02/27 08:22:04;;;;;;;2.42;1.27;;;3.60;99.90;;;;;;4445834;32;20058;-65
2022/02/27 08:24:30;;;;;;;0.85;0.82;;;3.70;99.90;;;;;;4440248;32;20066;-65
2022/02/27 08:26:56;;;;;;;1.42;1.20;;;3.70;99.90;;;;;;4436107;32;20108;-65
2022/02/27 08:29:22;;;;;;;2.28;1.40;;;3.90;99.90;;;;;;4442243;32;20390;-65
2022/02/27 08:31:47;;;;;;;0.65;0.65;;;3.80;99.90;;;;;;4435789;32;20122;-65
2022/02/27 08:34:13;;;;;;;0.90;0.90;;;4.00;99.90;;;;;;4439278;32;20061;-65
2022/02/27 08:36:39;;;;;;;1.75;1.02;;;4.10;99.90;;;;;;4435387;32;20061;-65
2022/02/27 08:39:05;;;;;;;0.60;0.60;;;4.30;99.90;;;;;;4442322;32;20109;-65
2022/02/27 08:41:31;;;;;;;1.08;0.68;;;4.30;99.90;;;;;;4437958;32;20528;-65
2022/02/27 08:43:56;;;;;;;1.60;1.12;;;4.40;99.90;;;;;;4445558;32;20073;-65
2022/02/27 08:46:22;;;;;;;0.93;0.93;;;4.40;99.90;;;;;;4434889;32;20118;-65
2022/02/27 08:48:48;;;;;;;1.02;0.93;;;4.60;99.90;;;;;;4449761;32;20104;-65
2022/02/27 08:51:14;;;;;;;0.95;0.95;;;4.60;99.90;;;;;;4447827;32;20120;-65
2022/02/27 08:53:40;;;;;;;1.02;1.02;;;4.70;99.90;;;;;;4446447;32;20376;-65
2022/02/27 08:56:05;;;;;;;10.02;1.40;;;4.90;99.90;;;;;;4448438;32;20073;-66
2022/02/27 08:58:31;;;;;;;1.70;1.58;;;5.10;99.90;;;;;;4453728;32;20077;-66
2022/02/27 09:00:56;;;;;;;1.58;1.42;;;5.10;99.90;;;;;;4432754;32;20477;-65
2022/02/27 09:03:24;;;;;;;2.50;1.17;;;5.10;99.90;;;;;;4447086;32;20077;-65
2022/02/27 09:05:51;;;;;;;1.10;1.00;;;5.10;99.90;;;;;;4436333;32;20473;-65
2022/02/27 09:08:17;;;;;;;0.93;0.93;;;5.10;99.90;;;;;;4427702;32;20130;-65
2022/02/27 09:10:43;;;;;;;4.95;1.77;;;5.20;99.90;;;;;;4441054;32;20120;-65
2022/02/27 09:13:09;;;;;;;4.18;0.95;;;5.30;99.90;;;;;;4438427;32;20470;-65
2022/02/27 09:15:35;;;;;;;3.33;1.52;;;5.50;99.90;;;;;;4440880;32;20056;-65
2022/02/27 09:18:01;;;;;;;2.65;1.73;;;5.60;99.90;;;;;;4428559;32;20443;-65
2022/02/27 09:20:26;;;;;;;4.25;1.90;;;5.70;99.90;;;;;;4441647;32;20066;-65
2022/02/27 09:22:52;;;;;;;3.37;1.80;;;5.80;99.90;;;;;;4441439;32;20065;-65
2022/02/27 09:25:17;;;;;;;5.60;2.70;;;5.80;99.90;;;;;;4443524;32;20160;-65
2022/02/27 09:27:43;;;;;;;6.87;1.30;;;5.80;99.90;;;;;;4435619;32;20112;-65
2022/02/27 09:30:09;;;;;;;0.85;0.85;;;5.80;99.90;;;;;;4435016;32;20204;-65
2022/02/27 09:32:34;;;;;;;1.12;1.02;;;5.80;99.90;;;;;;4441535;32;20072;-65
2022/02/27 09:35:02;;;;;;;2.42;1.45;;;5.90;99.90;;;;;;4440881;32;20505;-65
2022/02/27 09:37:27;;;;;;;1.37;1.27;;;5.90;99.90;;;;;;4426372;32;20081;-65
2022/02/27 09:39:58;;;;;;;1.23;1.12;;;5.90;99.90;;;;;;4439630;32;20062;-65
2022/02/27 09:42:25;;;;;;;0.90;0.90;;;6.00;99.90;;;;;;4442857;32;20073;-65
2022/02/27 09:44:50;;;;;;;1.37;1.23;;;6.10;99.90;;;;;;4440901;32;20078;-65
2022/02/27 09:47:16;;;;;;;1.35;1.25;;;6.40;99.90;;;;;;4442341;32;20513;-65
2022/02/27 09:49:45;;;;;;;0.73;0.73;;;6.60;99.90;;;;;;4422765;32;20688;-65
2022/02/27 09:52:12;;;;;;;3.50;1.70;;;6.50;99.90;;;;;;4416287;32;20072;-65
2022/02/27 09:54:38;;;;;;;3.50;1.87;;;6.80;99.90;;;;;;4449771;32;20394;-65
2022/02/27 09:57:04;;;;;;;2.12;1.37;;;7.00;99.90;;;;;;4443350;32;21104;-65
2022/02/27 09:59:29;;;;;;;2.67;1.40;;;7.00;99.90;;;;;;4429672;32;20097;-65
2022/02/27 10:01:59;;;;;;;1.12;1.12;;;6.90;99.90;;;;;;4429032;32;20069;-65
2022/02/27 10:04:25;;;;;;;4.70;1.62;;;7.00;99.90;;;;;;4434852;32;20402;-65
2022/02/27 10:06:51;;;;;;;1.25;1.15;;;7.20;99.90;;;;;;4444264;32;20085;-64
2022/02/27 10:09:24;;;;;;;1.48;1.30;;;7.30;99.90;;;;;;4429773;32;20113;-66
2022/02/27 10:11:51;;;;;;;7.03;2.33;;;7.30;99.90;;;;;;4431458;32;20085;-66
2022/02/27 10:14:26;;;;;;;6.12;1.77;;;7.20;99.90;;;;;;4445922;32;20124;-64
2022/02/27 10:17:00;;;;;;;2.85;1.83;;;7.00;99.90;;;;;;4439905;32;20081;-66
2022/02/27 10:19:26;;;;;;;1.73;1.48;;;7.10;99.90;;;;;;4432956;32;20114;-64
2022/02/27 10:21:52;;;;;;;13.35;1.75;;;7.30;99.90;;;;;;4445020;32;20073;-64
2022/02/27 10:24:18;;;;;;;0.65;0.65;;;7.40;99.90;;;;;;4437202;32;20109;-64
2022/02/27 10:26:46;;;;;;;1.92;1.58;;;7.70;99.90;;;;;;4429270;32;20076;-66
2022/02/27 10:29:14;;;;;;;6.50;1.90;;;7.70;99.90;;;;;;4442931;32;20085;-66
2022/02/27 10:31:46;;;;;;;2.30;1.83;;;7.80;99.90;;;;;;4441602;32;20074;-66
2022/02/27 10:34:30;;;;;;;5.05;1.92;;;7.90;99.90;;;;;;4443540;32;20081;-66
2022/02/27 10:37:16;;;;;;;0.73;0.73;;;7.90;99.90;;;;;;4433682;32;20100;-66
2022/02/27 10:39:45;;;;;;;3.03;1.23;;;8.00;99.90;;;;;;4443499;32;20065;-65
2022/02/27 10:42:13;;;;;;;0.98;0.93;;;8.00;99.90;;;;;;4443854;32;20065;-66
2022/02/27 10:44:41;;;;;;;1.95;0.98;;;7.80;99.90;;;;;;4443123;32;20069;-66
2022/02/27 10:47:20;;;;;;;4.20;1.98;;;7.90;99.90;;;;;;4430668;32;20501;-66
2022/02/27 10:49:47;;;;;;;3.60;2.28;;;7.90;99.90;;;;;;4445342;32;20585;-66
2022/02/27 10:52:16;;;;;;;1.37;1.27;;;8.00;99.90;;;;;;4439647;32;20426;-66
2022/02/27 10:54:44;;;;;;;1.87;1.70;;;8.00;99.90;;;;;;4437200;32;20533;-66
2022/02/27 10:57:23;;;;;;;1.55;1.30;;;8.20;99.90;;;;;;4421453;32;20123;-66
2022/02/27 10:59:49;;;;;;;4.57;1.45;;;8.40;99.90;;;;;;4444407;32;20544;-66
2022/02/27 11:02:14;;;;;;;6.25;1.58;;;8.40;99.90;;;;;;4445177;32;20097;-66
2022/02/27 11:04:41;;;;;;;1.05;1.05;;;8.50;99.90;;;;;;4457773;32;20061;-66
2022/02/27 11:07:06;;;;;;;2.72;1.92;;;8.20;99.90;;;;;;4448493;32;20073;-66
2022/02/27 11:09:33;;;;;;;1.65;1.42;;;8.20;99.90;;;;;;4430578;32;20403;-66
2022/02/27 11:12:01;;;;;;;2.12;1.17;;;8.30;99.90;;;;;;4435009;32;20538;-66
2022/02/27 11:14:28;;;;;;;1.23;1.05;;;8.40;99.90;;;;;;4444432;32;20120;-66
2022/02/27 11:16:54;;;;;;;2.62;1.30;;;8.40;99.90;;;;;;4434930;32;20065;-66
2022/02/27 11:19:20;;;;;;;1.37;0.93;;;8.50;99.90;;;;;;4434514;32;20467;-66
2022/02/27 11:21:48;;;;;;;1.25;1.08;;;8.80;99.90;;;;;;4441704;32;20064;-66
2022/02/27 11:24:15;;;;;;;1.58;1.27;;;9.00;99.90;;;;;;4443904;32;20132;-66
2022/02/27 11:26:40;;;;;;;5.68;0.82;;;9.00;99.90;;;;;;4445187;32;20088;-66
2022/02/27 11:29:08;;;;;;;2.30;1.75;;;9.20;99.90;;;;;;4444213;32;20065;-66
2022/02/27 11:31:35;;;;;;;12.55;3.05;;;9.40;99.90;;;;;;4438334;32;20431;-66
2022/02/27 11:34:18;;;;;;;3.95;2.25;;;9.30;99.90;;;;;;4443747;32;20081;-66
2022/02/27 11:36:46;;;;;;;3.42;1.50;;;9.20;99.90;;;;;;4447088;32;20145;-66
2022/02/27 11:40:28;;;;;;;1.20;1.10;;;9.70;99.90;;;;;;4437641;32;20061;-66
2022/02/27 11:41:58;;;;;;;0.80;0.80;;;9.90;99.90;;;;;;4432283;32;20592;-66
2022/02/27 11:44:33;;;;;;;2.08;0.95;;;10.10;99.90;;;;;;4442533;32;20069;-66
2022/02/27 11:47:08;;;;;;;0.80;0.80;;;10.20;99.90;;;;;;4444088;32;20093;-66
2022/02/27 11:49:39;;;;;;;3.60;1.27;;;10.70;99.90;;;;;;4439168;32;20080;-66
2022/02/27 11:52:09;;;;;;;;;;;10.80;99.90;;;;;;4429812;32;20568;-65
2022/02/27 11:54:38;;;;;;;1.23;1.15;;;10.80;99.90;;;;;;4438109;32;19940;-66
2022/02/27 11:57:07;;;;;;;5.47;2.20;;;10.70;99.90;;;;;;4437409;32;20053;-66
2022/02/27 11:59:57;;;;;;;1.42;1.20;;;11.00;99.90;;;;;;4439461;32;20069;-66
2022/02/27 12:02:44;;;;;;;8.02;2.47;;;11.40;99.90;;;;;;4422007;32;20229;-66
2022/02/27 12:05:13;;;;;;;2.28;1.33;;;11.40;99.90;;;;;;4438599;32;20069;-66
2022/02/27 12:08:05;;;;;;;3.70;1.35;;;11.70;99.90;;;;;;4453494;32;20594;-65
2022/02/27 12:10:35;;;;;;;1.95;0.90;;;12.10;99.90;;;;;;4428314;32;20061;-66
2022/02/27 12:13:01;;;;;;;4.37;2.85;;;11.80;99.90;;;;;;4429871;32;20422;-66
2022/02/27 12:15:30;;;;;;;1.25;1.12;;;11.60;99.90;;;;;;4444223;32;20053;-66
2022/02/27 12:18:03;;;;;;;3.28;1.75;;;10.90;99.90;;;;;;4443978;32;20138;-66
2022/02/27 12:20:46;;;;;;;1.17;0.98;;;10.70;99.90;;;;;;4428581;32;20057;-66
2022/02/27 12:23:34;;;;;;;2.00;1.45;;;10.90;99.90;;;;;;4443357;32;20052;-66
2022/02/27 12:26:03;;;;;;;3.40;1.60;;;11.20;99.90;;;;;;4432424;32;20072;-66
2022/02/27 12:28:51;;;;;;;1.08;0.75;;;11.10;99.90;;;;;;4433452;32;20084;-66
2022/02/27 12:31:19;;;;;;;2.10;1.48;;;11.00;99.90;;;;;;4432613;32;20081;-66
2022/02/27 12:33:44;;;;;;;1.75;1.30;;;11.40;99.90;;;;;;4429126;32;20065;-66
2022/02/27 12:36:10;;;;;;;1.95;1.10;;;11.20;99.90;;;;;;4442904;32;20076;-66
2022/02/27 12:38:36;;;;;;;0.95;0.90;;;11.30;99.90;;;;;;4443584;32;20632;-66
2022/02/27 12:41:03;;;;;;;3.22;1.25;;;12.00;99.90;;;;;;4442323;32;20078;-66
2022/02/27 12:43:29;;;;;;;1.70;1.30;;;11.00;99.90;;;;;;4442072;32;20706;-66
2022/02/27 12:45:55;;;;;;;3.78;1.50;;;10.80;99.90;;;;;;4443985;32;20064;-66
2022/02/27 12:50:10;;;;;;;2.30;1.10;;;11.60;99.90;;;;;;4427888;32;20093;-66
2022/02/27 12:51:09;;;;;;;4.47;1.40;;;11.80;99.90;;;;;;4429306;32;20193;-66
2022/02/27 12:53:34;;;;;;;1.10;1.05;;;11.90;99.90;;;;;;4431406;32;20462;-66